createdAt,value
2018-04-27T00:00:17.081Z,71.90
2018-04-27T00:00:50.349Z,71.80
2018-04-27T00:01:23.612Z,72.00
2018-04-27T00:01:57.641Z,72.00
2018-04-27T00:02:30.904Z,71.90
2018-04-27T00:03:04.188Z,72.00
2018-04-27T00:03:37.543Z,72.10
2018-04-27T00:04:10.799Z,72.10
2018-04-27T00:04:44.056Z,72.00
2018-04-27T00:05:18.117Z,72.10
2018-04-27T00:05:51.390Z,72.00
2018-04-27T00:06:25.412Z,72.30
2018-04-27T00:06:58.671Z,72.20
2018-04-27T00:07:31.924Z,72.20
2018-04-27T00:08:05.234Z,72.40
2018-04-27T00:08:38.500Z,72.30
2018-04-27T00:09:12.532Z,72.50
2018-04-27T00:09:45.808Z,72.50
2018-04-27T00:10:19.071Z,72.50
2018-04-27T00:10:52.352Z,72.40
2018-04-27T00:11:25.613Z,72.50
2018-04-27T00:11:59.656Z,72.60
2018-04-27T00:12:32.920Z,72.60
2018-04-27T00:13:06.184Z,72.60
2018-04-27T00:13:40.228Z,72.70
2018-04-27T00:14:13.488Z,72.70
2018-04-27T00:14:46.756Z,72.70
2018-04-27T00:15:20.018Z,72.60
2018-04-27T00:15:54.061Z,72.90
2018-04-27T00:16:27.321Z,72.80
2018-04-27T00:17:00.585Z,72.90
2018-04-27T00:17:33.860Z,72.90
2018-04-27T00:18:07.924Z,73.00
2018-04-27T00:18:41.216Z,72.90
2018-04-27T00:19:14.456Z,72.90
2018-04-27T00:19:47.752Z,73.00
2018-04-27T00:20:20.996Z,73.10
2018-04-27T00:20:54.272Z,73.20
2018-04-27T00:21:27.552Z,73.00
2018-04-27T00:22:00.824Z,73.20
2018-04-27T00:22:34.091Z,73.10
2018-04-27T00:23:08.142Z,73.00
2018-04-27T00:23:41.412Z,72.90
2018-04-27T00:24:15.504Z,73.10
2018-04-27T00:24:48.820Z,72.90
2018-04-27T00:25:22.095Z,72.90
2018-04-27T00:25:55.344Z,72.90
2018-04-27T00:26:28.622Z,73.00
2018-04-27T00:27:01.885Z,73.00
2018-04-27T00:27:35.152Z,73.00
2018-04-27T00:28:09.203Z,73.10
2018-04-27T00:28:42.469Z,73.00
2018-04-27T00:29:15.731Z,73.00
2018-04-27T00:29:48.999Z,73.00
2018-04-27T00:30:22.277Z,72.90
2018-04-27T00:30:56.304Z,73.00
2018-04-27T00:31:29.551Z,72.90
2018-04-27T00:32:02.830Z,72.90
2018-04-27T00:32:36.096Z,72.90
2018-04-27T00:33:10.156Z,73.10
2018-04-27T00:33:43.416Z,73.10
2018-04-27T00:34:16.765Z,73.00
2018-04-27T00:34:49.941Z,73.10
2018-04-27T00:35:23.976Z,73.10
2018-04-27T00:35:57.244Z,73.10
2018-04-27T00:36:30.499Z,73.20
2018-04-27T00:37:04.534Z,73.20
2018-04-27T00:37:37.797Z,73.20
2018-04-27T00:38:11.068Z,73.30
2018-04-27T00:38:44.341Z,73.30
2018-04-27T00:39:18.372Z,73.30
2018-04-27T00:39:52.388Z,73.30
2018-04-27T00:40:26.421Z,73.40
2018-04-27T00:41:00.451Z,73.20
2018-04-27T00:41:33.708Z,73.20
2018-04-27T00:42:07.037Z,73.10
2018-04-27T00:42:40.237Z,72.90
2018-04-27T00:43:13.492Z,72.80
2018-04-27T00:43:47.103Z,72.70
2018-04-27T00:44:20.355Z,72.70
2018-04-27T00:44:55.252Z,72.70
2018-04-27T00:45:28.526Z,72.60
2018-04-27T00:46:01.776Z,72.70
2018-04-27T00:46:35.076Z,72.60
2018-04-27T00:47:08.354Z,72.80
2018-04-27T00:47:42.383Z,72.80
2018-04-27T00:48:15.636Z,72.70
2018-04-27T00:48:49.680Z,72.80
2018-04-27T00:49:22.958Z,72.80
2018-04-27T00:49:56.211Z,72.90
2018-04-27T00:50:30.237Z,72.90
2018-04-27T00:51:03.520Z,72.90
2018-04-27T00:51:36.781Z,72.80
2018-04-27T00:52:10.048Z,72.80
2018-04-27T00:52:55.356Z,73.80
2018-04-27T00:53:28.614Z,72.90
2018-04-27T00:54:01.882Z,72.90
2018-04-27T00:54:35.152Z,73.00
2018-04-27T00:55:08.413Z,72.90
2018-04-27T00:55:41.676Z,73.00
2018-04-27T00:56:15.701Z,73.20
2018-04-27T00:56:48.964Z,73.20
2018-04-27T00:57:23.001Z,73.50
2018-04-27T00:57:56.269Z,73.60
2018-04-27T00:58:29.528Z,73.60
2018-04-27T00:59:02.816Z,73.70
2018-04-27T00:59:36.083Z,73.60
2018-04-27T01:00:10.113Z,73.60
2018-04-27T01:00:43.385Z,73.60
2018-04-27T01:01:16.648Z,73.70
2018-04-27T01:01:49.929Z,73.60
2018-04-27T01:02:23.187Z,73.70
2018-04-27T01:02:57.204Z,73.50
2018-04-27T01:03:30.464Z,73.50
2018-04-27T01:04:04.514Z,74.30
2018-04-27T01:04:37.805Z,73.40
2018-04-27T01:05:11.021Z,73.40
2018-04-27T01:05:45.183Z,73.60
2018-04-27T01:06:18.423Z,73.60
2018-04-27T01:06:51.689Z,73.60
2018-04-27T01:07:24.973Z,73.50
2018-04-27T01:07:58.220Z,73.50
2018-04-27T01:08:31.477Z,73.50
2018-04-27T01:09:04.766Z,73.70
2018-04-27T01:09:38.028Z,73.60
2018-04-27T01:10:11.288Z,73.60
2018-04-27T01:10:44.545Z,73.50
2018-04-27T01:11:18.581Z,73.60
2018-04-27T01:11:51.844Z,73.60
2018-04-27T01:12:25.103Z,73.70
2018-04-27T01:12:58.365Z,73.70
2018-04-27T01:13:32.403Z,73.70
2018-04-27T01:14:06.453Z,73.60
2018-04-27T01:14:39.731Z,73.60
2018-04-27T01:15:13.001Z,73.70
2018-04-27T01:15:46.264Z,73.70
2018-04-27T01:16:19.520Z,73.60
2018-04-27T01:16:53.048Z,73.70
2018-04-27T01:17:26.315Z,73.90
2018-04-27T01:17:59.576Z,73.90
2018-04-27T01:18:32.944Z,73.90
2018-04-27T01:19:06.214Z,73.90
2018-04-27T01:19:40.244Z,73.90
2018-04-27T01:20:13.525Z,73.80
2018-04-27T01:20:46.784Z,73.80
2018-04-27T01:21:20.045Z,73.70
2018-04-27T01:21:53.315Z,73.80
2018-04-27T01:22:27.370Z,73.70
2018-04-27T01:23:00.637Z,73.70
2018-04-27T01:23:33.903Z,73.80
2018-04-27T01:24:07.188Z,74.00
2018-04-27T01:24:40.443Z,73.90
2018-04-27T01:25:14.486Z,73.90
2018-04-27T01:25:47.744Z,73.90
2018-04-27T01:26:21.007Z,73.80
2018-04-27T01:26:55.043Z,73.90
2018-04-27T01:27:28.316Z,73.90
2018-04-27T01:28:01.566Z,73.90
2018-04-27T01:28:35.591Z,74.00
2018-04-27T01:29:08.882Z,74.00
2018-04-27T01:29:42.152Z,74.00
2018-04-27T01:30:15.420Z,74.10
2018-04-27T01:30:48.679Z,74.00
2018-04-27T01:31:22.717Z,74.00
2018-04-27T01:31:55.981Z,74.00
2018-04-27T01:32:29.256Z,74.20
2018-04-27T01:33:02.512Z,74.10
2018-04-27T01:33:35.779Z,74.10
2018-04-27T01:34:09.066Z,74.10
2018-04-27T01:34:42.323Z,74.10
2018-04-27T01:35:15.582Z,74.10
2018-04-27T01:35:48.913Z,74.10
2018-04-27T01:36:22.940Z,73.90
2018-04-27T01:36:56.202Z,73.90
2018-04-27T01:37:30.224Z,73.90
2018-04-27T01:38:03.508Z,73.90
2018-04-27T01:38:36.766Z,74.00
2018-04-27T01:39:10.056Z,74.00
2018-04-27T01:39:43.321Z,74.10
2018-04-27T01:40:16.596Z,74.00
2018-04-27T01:40:50.622Z,74.20
2018-04-27T01:41:23.886Z,74.10
2018-04-27T01:41:57.136Z,74.20
2018-04-27T01:42:31.161Z,74.20
2018-04-27T01:43:04.429Z,74.20
2018-04-27T01:43:38.464Z,74.40
2018-04-27T01:44:11.751Z,74.40
2018-04-27T01:44:45.022Z,74.40
2018-04-27T01:45:18.286Z,74.30
2018-04-27T01:45:51.540Z,74.40
2018-04-27T01:46:25.573Z,74.40
2018-04-27T01:46:58.842Z,74.40
2018-04-27T01:47:32.105Z,74.50
2018-04-27T01:48:05.356Z,74.60
2018-04-27T01:48:38.628Z,74.70
2018-04-27T01:49:11.965Z,74.70
2018-04-27T01:49:45.224Z,74.80
2018-04-27T01:50:18.489Z,74.70
2018-04-27T01:50:51.767Z,74.70
2018-04-27T01:51:25.033Z,74.80
2018-04-27T01:51:58.295Z,74.70
2018-04-27T01:52:31.562Z,74.80
2018-04-27T01:53:04.816Z,74.80
2018-04-27T01:53:38.076Z,74.90
2018-04-27T01:54:12.112Z,74.80
2018-04-27T01:54:45.389Z,74.80
2018-04-27T01:55:19.425Z,75.00
2018-04-27T01:55:52.681Z,75.00
2018-04-27T01:56:25.973Z,75.20
2018-04-27T01:56:59.311Z,75.30
2018-04-27T01:57:32.563Z,75.40
2018-04-27T01:58:05.836Z,75.50
2018-04-27T01:58:39.105Z,75.40
2018-04-27T01:59:12.381Z,75.30
2018-04-27T01:59:45.662Z,75.30
2018-04-27T02:00:18.918Z,75.30
2018-04-27T02:00:52.177Z,75.30
2018-04-27T02:01:25.432Z,75.40
2018-04-27T02:01:58.729Z,75.50
2018-04-27T02:02:32.747Z,75.50
2018-04-27T02:03:06.013Z,75.40
2018-04-27T02:03:39.268Z,75.40
2018-04-27T02:04:13.301Z,75.60
2018-04-27T02:04:46.589Z,75.60
2018-04-27T02:05:19.840Z,75.80
2018-04-27T02:05:53.113Z,75.70
2018-04-27T02:06:27.168Z,75.60
2018-04-27T02:07:00.427Z,75.60
2018-04-27T02:07:33.697Z,75.60
2018-04-27T02:08:07.896Z,75.60
2018-04-27T02:08:41.160Z,75.50
2018-04-27T02:09:14.429Z,75.50
2018-04-27T02:09:47.695Z,75.60
2018-04-27T02:10:20.949Z,75.70
2018-04-27T02:10:54.233Z,75.90
2018-04-27T02:11:27.492Z,76.00
2018-04-27T02:12:00.750Z,76.00
2018-04-27T02:12:34.017Z,76.00
2018-04-27T02:13:07.311Z,76.20
2018-04-27T02:13:40.568Z,76.10
2018-04-27T02:14:14.596Z,76.00
2018-04-27T02:14:47.872Z,76.00
2018-04-27T02:15:21.144Z,76.10
2018-04-27T02:15:54.412Z,76.20
2018-04-27T02:16:27.700Z,76.30
2018-04-27T02:17:00.957Z,76.30
2018-04-27T02:17:34.227Z,76.40
2018-04-27T02:18:07.494Z,76.20
2018-04-27T02:18:40.755Z,76.20
2018-04-27T02:19:14.027Z,76.20
2018-04-27T02:19:47.304Z,76.20
2018-04-27T02:20:20.572Z,76.30
2018-04-27T02:20:53.853Z,76.20
2018-04-27T02:21:27.892Z,76.40
2018-04-27T02:22:01.164Z,76.40
2018-04-27T02:22:34.441Z,76.40
2018-04-27T02:23:07.694Z,76.20
2018-04-27T02:23:40.951Z,76.20
2018-04-27T02:24:14.219Z,76.20
2018-04-27T02:24:48.257Z,76.20
2018-04-27T02:25:21.517Z,76.20
2018-04-27T02:25:54.780Z,76.10
2018-04-27T02:26:28.797Z,76.20
2018-04-27T02:27:02.057Z,76.00
2018-04-27T02:27:35.335Z,76.30
2018-04-27T02:28:08.583Z,76.20
2018-04-27T02:28:42.479Z,76.30
2018-04-27T02:29:15.728Z,76.30
2018-04-27T02:29:49.009Z,76.10
2018-04-27T02:30:22.283Z,76.10
2018-04-27T02:30:55.538Z,76.40
2018-04-27T02:31:28.808Z,76.40
2018-04-27T02:32:02.834Z,76.40
2018-04-27T02:32:36.864Z,76.30
2018-04-27T02:33:10.123Z,76.30
2018-04-27T02:33:43.386Z,76.30
2018-04-27T02:34:16.641Z,76.20
2018-04-27T02:34:49.933Z,76.40
2018-04-27T02:35:23.966Z,76.50
2018-04-27T02:35:57.237Z,76.40
2018-04-27T02:36:30.506Z,76.50
2018-04-27T02:37:03.777Z,76.60
2018-04-27T02:37:37.041Z,76.80
2018-04-27T02:38:11.065Z,76.60
2018-04-27T02:38:44.352Z,76.60
2018-04-27T02:39:18.376Z,76.50
2018-04-27T02:39:51.656Z,76.50
2018-04-27T02:40:24.932Z,76.60
2018-04-27T02:40:58.208Z,76.50
2018-04-27T02:41:31.460Z,76.30
2018-04-27T02:42:04.732Z,76.50
2018-04-27T02:42:38.757Z,76.80
2018-04-27T02:43:12.028Z,76.70
2018-04-27T02:43:45.289Z,76.70
2018-04-27T02:44:18.549Z,76.70
2018-04-27T02:44:51.828Z,76.50
2018-04-27T02:45:25.874Z,77.50
2018-04-27T02:45:59.146Z,76.60
2018-04-27T02:46:32.436Z,76.60
2018-04-27T02:47:05.696Z,76.70
2018-04-27T02:47:38.961Z,76.80
2018-04-27T02:48:12.220Z,76.60
2018-04-27T02:48:46.249Z,76.50
2018-04-27T02:49:19.530Z,76.40
2018-04-27T02:49:52.873Z,76.40
2018-04-27T02:50:26.128Z,76.60
2018-04-27T02:50:59.388Z,76.60
2018-04-27T02:51:32.648Z,76.70
2018-04-27T02:52:05.924Z,76.80
2018-04-27T02:52:39.190Z,76.80
2018-04-27T02:53:13.227Z,76.80
2018-04-27T02:53:46.484Z,76.70
2018-04-27T02:54:19.743Z,76.80
2018-04-27T02:54:53.780Z,76.80
2018-04-27T02:55:27.053Z,76.80
2018-04-27T02:56:00.316Z,76.80
2018-04-27T02:56:33.592Z,76.70
2018-04-27T02:57:06.844Z,76.70
2018-04-27T02:57:40.107Z,76.80
2018-04-27T02:58:13.363Z,76.90
2018-04-27T02:58:46.626Z,77.10
2018-04-27T02:59:19.905Z,77.00
2018-04-27T02:59:53.172Z,76.90
2018-04-27T03:00:27.192Z,76.80
2018-04-27T03:01:00.462Z,76.80
2018-04-27T03:01:33.727Z,76.80
2018-04-27T03:02:07.753Z,76.90
2018-04-27T03:02:41.020Z,76.80
2018-04-27T03:03:14.301Z,76.80
2018-04-27T03:03:47.569Z,76.90
2018-04-27T03:04:21.621Z,76.90
2018-04-27T03:04:54.894Z,76.90
2018-04-27T03:05:28.157Z,76.90
2018-04-27T03:06:01.418Z,76.90
2018-04-27T03:06:34.679Z,77.00
2018-04-27T03:07:07.941Z,76.80
2018-04-27T03:07:41.204Z,76.80
2018-04-27T03:08:14.459Z,76.90
2018-04-27T03:08:47.716Z,76.80
2018-04-27T03:09:21.001Z,76.70
2018-04-27T03:09:54.272Z,76.60
2018-04-27T03:10:28.371Z,76.90
2018-04-27T03:11:01.635Z,76.80
2018-04-27T03:11:35.662Z,76.80
2018-04-27T03:12:08.926Z,76.70
2018-04-27T03:12:42.187Z,76.70
2018-04-27T03:13:16.213Z,76.70
2018-04-27T03:13:49.469Z,76.70
2018-04-27T03:14:23.507Z,76.70
2018-04-27T03:14:56.768Z,76.60
2018-04-27T03:15:30.052Z,76.70
2018-04-27T03:16:03.340Z,76.80
2018-04-27T03:16:36.600Z,76.80
2018-04-27T03:17:09.868Z,76.80
2018-04-27T03:17:43.905Z,76.70
2018-04-27T03:18:17.165Z,76.60
2018-04-27T03:18:50.430Z,76.60
2018-04-27T03:19:24.458Z,76.70
2018-04-27T03:19:57.717Z,76.60
2018-04-27T03:20:30.990Z,76.60
2018-04-27T03:21:04.264Z,76.60
2018-04-27T03:21:38.298Z,76.80
2018-04-27T03:22:11.550Z,76.80
2018-04-27T03:22:44.808Z,76.80
2018-04-27T03:23:18.068Z,76.80
2018-04-27T03:23:51.418Z,77.50
2018-04-27T03:24:24.667Z,76.80
2018-04-27T03:24:57.941Z,76.80
2018-04-27T03:25:31.206Z,77.00
2018-04-27T03:26:04.468Z,77.10
2018-04-27T03:26:37.728Z,77.20
2018-04-27T03:27:11.758Z,77.20
2018-04-27T03:27:45.017Z,77.20
2018-04-27T03:28:18.273Z,77.20
2018-04-27T03:28:51.544Z,77.20
2018-04-27T03:29:24.806Z,77.30
2018-04-27T03:29:58.072Z,77.30
2018-04-27T03:30:32.121Z,77.10
2018-04-27T03:31:05.377Z,77.00
2018-04-27T03:31:38.725Z,77.00
2018-04-27T03:32:11.980Z,77.10
2018-04-27T03:32:46.012Z,77.20
2018-04-27T03:33:20.025Z,77.10
2018-04-27T03:33:53.275Z,78.20
2018-04-27T03:34:26.627Z,78.20
2018-04-27T03:34:59.789Z,78.30
2018-04-27T03:35:33.047Z,78.30
2018-04-27T03:36:06.312Z,78.40
2018-04-27T03:36:40.326Z,78.60
2018-04-27T03:37:13.584Z,78.60
2018-04-27T03:37:46.834Z,78.50
2018-04-27T03:38:20.092Z,78.50
2018-04-27T03:38:53.343Z,78.50
2018-04-27T03:39:26.603Z,78.60
2018-04-27T03:40:00.620Z,78.60
2018-04-27T03:40:33.882Z,78.60
2018-04-27T03:41:07.925Z,78.90
2018-04-27T03:41:41.169Z,78.80
2018-04-27T03:42:14.420Z,79.00
2018-04-27T03:42:47.673Z,79.00
2018-04-27T03:43:20.929Z,79.00
2018-04-27T03:43:54.183Z,79.00
2018-04-27T03:44:28.203Z,79.20
2018-04-27T03:45:01.452Z,79.20
2018-04-27T03:45:35.472Z,79.30
2018-04-27T03:46:08.745Z,79.20
2018-04-27T03:46:42.004Z,79.20
2018-04-27T03:47:16.012Z,79.20
2018-04-27T03:47:50.028Z,79.40
2018-04-27T03:48:23.289Z,79.30
2018-04-27T03:48:57.313Z,79.30
2018-04-27T03:49:30.572Z,79.20
2018-04-27T03:50:04.593Z,79.20
2018-04-27T03:50:37.837Z,79.20
2018-04-27T03:51:11.857Z,79.20
2018-04-27T03:51:45.102Z,79.20
2018-04-27T03:52:18.825Z,79.30
2018-04-27T03:52:52.104Z,79.20
2018-04-27T03:53:25.357Z,79.20
2018-04-27T03:53:58.630Z,79.20
2018-04-27T03:54:31.889Z,79.20
2018-04-27T03:55:05.136Z,79.30
2018-04-27T03:55:38.397Z,79.00
2018-04-27T03:56:11.666Z,79.10
2018-04-27T03:56:44.914Z,78.90
2018-04-27T03:57:18.941Z,79.10
2018-04-27T03:57:52.995Z,79.20
2018-04-27T03:58:26.248Z,79.20
2018-04-27T03:58:59.502Z,79.10
2018-04-27T03:59:45.498Z,79.30
2018-04-27T04:00:30.549Z,79.20
2018-04-27T04:01:15.723Z,79.40
2018-04-27T04:02:00.761Z,79.40
2018-04-27T04:02:45.944Z,79.30
2018-04-27T04:03:30.989Z,79.30
2018-04-27T04:04:16.149Z,79.10
2018-04-27T04:05:01.209Z,79.10
2018-04-27T04:05:34.480Z,79.20
2018-04-27T04:06:07.731Z,79.30
2018-04-27T04:06:41.756Z,79.30
2018-04-27T04:07:15.030Z,79.30
2018-04-27T04:07:48.285Z,79.40
2018-04-27T04:08:22.309Z,79.60
2018-04-27T04:08:55.559Z,79.60
2018-04-27T04:09:28.825Z,79.50
2018-04-27T04:10:02.078Z,79.50
2018-04-27T04:10:35.326Z,79.60
2018-04-27T04:11:08.595Z,79.70
2018-04-27T04:11:41.867Z,79.70
2018-04-27T04:12:15.116Z,79.70
2018-04-27T04:12:48.396Z,79.80
2018-04-27T04:13:22.045Z,79.80
2018-04-27T04:13:55.297Z,79.80
2018-04-27T04:14:29.308Z,79.70
2018-04-27T04:15:02.560Z,79.70
2018-04-27T04:15:35.816Z,79.90
2018-04-27T04:16:09.083Z,79.70
2018-04-27T04:16:42.336Z,79.80
2018-04-27T04:17:15.606Z,79.70
2018-04-27T04:17:49.619Z,79.80
2018-04-27T04:18:22.885Z,79.80
2018-04-27T04:18:56.136Z,79.70
2018-04-27T04:19:29.384Z,79.80
2018-04-27T04:20:02.640Z,79.80
2018-04-27T04:20:35.893Z,79.80
2018-04-27T04:21:09.920Z,79.90
2018-04-27T04:21:43.180Z,79.90
2018-04-27T04:22:16.434Z,79.90
2018-04-27T04:22:50.868Z,79.80
2018-04-27T04:23:24.123Z,79.80
2018-04-27T04:23:57.378Z,80.00
2018-04-27T04:24:30.628Z,80.00
2018-04-27T04:25:03.913Z,79.90
2018-04-27T04:25:37.173Z,79.70
2018-04-27T04:26:10.472Z,79.60
2018-04-27T04:26:43.741Z,79.50
2018-04-27T04:27:17.000Z,79.60
2018-04-27T04:27:50.244Z,79.40
2018-04-27T04:28:23.507Z,79.50
2018-04-27T04:28:56.752Z,79.40
2018-04-27T04:29:30.016Z,79.60
2018-04-27T04:30:04.037Z,79.80
2018-04-27T04:30:38.066Z,79.80
2018-04-27T04:31:11.323Z,79.80
2018-04-27T04:31:44.598Z,79.70
2018-04-27T04:32:17.908Z,79.60
2018-04-27T04:32:51.108Z,79.60
2018-04-27T04:33:24.372Z,79.50
2018-04-27T04:33:58.179Z,79.40
2018-04-27T04:34:31.436Z,79.50
2018-04-27T04:35:05.460Z,79.70
2018-04-27T04:35:39.486Z,79.70
2018-04-27T04:36:12.745Z,79.60
2018-04-27T04:36:46.790Z,79.70
2018-04-27T04:37:20.021Z,79.70
2018-04-27T04:37:54.041Z,79.80
2018-04-27T04:38:27.309Z,79.80
2018-04-27T04:39:00.569Z,79.90
2018-04-27T04:39:33.827Z,79.90
2018-04-27T04:40:07.848Z,79.80
2018-04-27T04:40:41.148Z,79.80
2018-04-27T04:41:15.164Z,79.80
2018-04-27T04:41:48.431Z,79.80
2018-04-27T04:42:21.684Z,79.80
2018-04-27T04:42:54.939Z,79.70
2018-04-27T04:43:28.201Z,79.70
2018-04-27T04:44:01.461Z,79.70
2018-04-27T04:44:34.787Z,79.80
2018-04-27T04:45:08.881Z,80.80
2018-04-27T04:45:42.835Z,80.00
2018-04-27T04:46:16.089Z,79.90
2018-04-27T04:46:49.357Z,79.60
2018-04-27T04:47:22.620Z,79.70
2018-04-27T04:47:55.870Z,79.60
2018-04-27T04:48:29.116Z,79.70
2018-04-27T04:49:03.154Z,79.80
2018-04-27T04:49:36.424Z,79.70
2018-04-27T04:50:09.679Z,79.70
2018-04-27T04:50:42.936Z,79.60
2018-04-27T04:51:16.180Z,79.40
2018-04-27T04:51:49.455Z,79.30
2018-04-27T04:52:22.791Z,79.30
2018-04-27T04:52:55.956Z,79.10
2018-04-27T04:53:29.211Z,79.00
2018-04-27T04:54:02.461Z,79.00
2018-04-27T04:54:35.742Z,79.10
2018-04-27T04:55:09.005Z,92.70
2018-04-27T04:55:42.248Z,79.50
2018-04-27T04:56:15.506Z,79.40
2018-04-27T04:56:48.768Z,79.30
2018-04-27T04:57:22.040Z,78.10
2018-04-27T04:57:56.070Z,79.00
2018-04-27T04:58:29.341Z,79.00
2018-04-27T04:59:03.347Z,78.90
2018-04-27T04:59:36.607Z,78.80
2018-04-27T05:00:09.869Z,78.70
2018-04-27T05:00:43.140Z,77.50
2018-04-27T05:01:16.409Z,77.40
2018-04-27T05:01:49.689Z,77.50
2018-04-27T05:02:22.948Z,78.70
2018-04-27T05:02:56.218Z,79.00
2018-04-27T05:03:30.237Z,79.10
2018-04-27T05:04:04.248Z,79.30
2018-04-27T05:04:37.504Z,79.20
2018-04-27T05:05:10.744Z,79.10
2018-04-27T05:05:44.024Z,79.20
2018-04-27T05:06:17.308Z,79.50
2018-04-27T05:06:51.343Z,79.60
2018-04-27T05:07:25.359Z,79.40
2018-04-27T05:07:58.611Z,79.40
2018-04-27T05:08:31.877Z,79.50
2018-04-27T05:09:05.115Z,79.60
2018-04-27T05:09:38.363Z,79.50
2018-04-27T05:10:12.379Z,80.40
2018-04-27T05:10:45.692Z,79.60
2018-04-27T05:11:19.664Z,78.30
2018-04-27T05:11:52.928Z,79.40
2018-04-27T05:12:26.185Z,79.40
2018-04-27T05:12:59.445Z,78.10
2018-04-27T05:13:32.697Z,79.40
2018-04-27T05:14:05.995Z,79.60
2018-04-27T05:14:39.230Z,79.60
2018-04-27T05:15:12.476Z,79.80
2018-04-27T05:15:45.828Z,79.80
2018-04-27T05:16:19.075Z,78.60
2018-04-27T05:16:52.351Z,78.60
2018-04-27T05:17:25.629Z,78.30
2018-04-27T05:18:01.640Z,78.20
2018-04-27T05:19:34.517Z,78.20
2018-04-27T05:20:07.298Z,78.20
2018-04-27T05:20:40.592Z,78.10
2018-04-27T05:21:14.610Z,78.40
2018-04-27T05:21:47.901Z,78.40
2018-04-27T05:22:21.169Z,78.60
2018-04-27T05:22:54.440Z,78.50
2018-04-27T05:23:27.707Z,78.60
2018-04-27T05:24:01.725Z,78.40
2018-04-27T05:24:34.975Z,78.40
2018-04-27T05:25:08.241Z,78.50
2018-04-27T05:25:41.526Z,78.40
2018-04-27T05:26:14.780Z,78.40
2018-04-27T05:26:48.051Z,78.30
2018-04-27T05:27:21.321Z,78.20
2018-04-27T05:27:55.353Z,78.40
2018-04-27T05:28:28.613Z,78.70
2018-04-27T05:29:01.892Z,78.70
2018-04-27T05:29:35.164Z,78.50
2018-04-27T05:30:08.425Z,78.10
2018-04-27T05:30:41.689Z,78.10
2018-04-27T05:31:23.647Z,78.40
2018-04-27T05:31:56.936Z,78.30
2018-04-27T05:32:30.220Z,78.30
2018-04-27T05:33:04.337Z,78.20
2018-04-27T05:33:37.603Z,78.00
2018-04-27T05:34:11.632Z,78.10
2018-04-27T05:34:44.892Z,78.10
2018-04-27T05:35:18.151Z,78.20
2018-04-27T05:35:52.173Z,78.70
2018-04-27T05:36:26.295Z,78.30
2018-04-27T05:36:59.599Z,78.10
2018-04-27T05:37:32.887Z,78.10
2018-04-27T05:38:06.148Z,77.80
2018-04-27T05:38:39.417Z,77.40
2018-04-27T05:39:12.663Z,77.80
2018-04-27T05:39:45.929Z,77.80
2018-04-27T05:40:19.961Z,77.30
2018-04-27T05:40:53.232Z,77.30
2018-04-27T05:41:26.499Z,77.30
2018-04-27T05:41:59.804Z,76.90
2018-04-27T05:42:33.102Z,76.70
2018-04-27T05:43:06.364Z,76.60
2018-04-27T05:43:39.631Z,77.10
2018-04-27T05:44:12.915Z,76.30
2018-04-27T05:44:46.192Z,76.00
2018-04-27T05:45:19.464Z,75.70
2018-04-27T05:45:52.728Z,75.70
2018-04-27T05:46:26.012Z,75.50
2018-04-27T05:47:00.054Z,76.10
2018-04-27T05:47:33.346Z,76.10
2018-04-27T05:48:06.613Z,75.90
2018-04-27T05:48:39.867Z,76.80
2018-04-27T05:49:13.143Z,76.80
2018-04-27T05:49:46.409Z,76.50
2018-04-27T05:50:19.688Z,76.20
2018-04-27T05:50:52.952Z,75.70
2018-04-27T05:51:26.229Z,75.30
2018-04-27T05:52:00.261Z,74.70
2018-04-27T05:52:33.536Z,74.70
2018-04-27T05:53:06.824Z,74.80
2018-04-27T05:53:40.079Z,74.90
2018-04-27T05:54:14.108Z,74.40
2018-04-27T05:54:47.376Z,74.30
2018-04-27T05:55:20.639Z,76.00
2018-04-27T05:55:53.956Z,75.00
2018-04-27T05:56:27.220Z,74.80
2018-04-27T05:57:00.582Z,74.70
2018-04-27T05:57:33.870Z,74.40
2018-04-27T05:58:07.904Z,74.20
2018-04-27T05:58:41.175Z,74.10
2018-04-27T05:59:14.424Z,74.60
2018-04-27T05:59:48.477Z,74.90
2018-04-27T06:00:21.723Z,74.90
2018-04-27T06:00:54.992Z,74.60
2018-04-27T06:01:29.020Z,74.10
2018-04-27T06:02:02.302Z,74.10
2018-04-27T06:02:35.576Z,74.80
2018-04-27T06:03:08.840Z,73.80
2018-04-27T06:03:53.860Z,73.60
2018-04-27T06:04:27.136Z,73.30
2018-04-27T06:05:00.409Z,73.20
2018-04-27T06:05:33.699Z,73.00
2018-04-27T06:06:06.964Z,72.90
2018-04-27T06:06:40.227Z,72.90
2018-04-27T06:07:13.485Z,72.70
2018-04-27T06:07:46.776Z,73.40
2018-04-27T06:08:20.053Z,73.40
2018-04-27T06:08:53.324Z,73.90
2018-04-27T06:09:26.600Z,73.90
2018-04-27T06:09:59.861Z,72.70
2018-04-27T06:10:33.132Z,72.30
2018-04-27T06:11:07.158Z,71.80
2018-04-27T06:11:40.431Z,71.80
2018-04-27T06:12:13.708Z,71.90
2018-04-27T06:12:47.013Z,71.40
2018-04-27T06:13:20.289Z,71.20
2018-04-27T06:13:53.564Z,71.60
2018-04-27T06:14:29.604Z,71.20
2018-04-27T06:15:02.889Z,70.80
2018-04-27T06:15:36.159Z,71.90
2018-04-27T06:16:09.489Z,71.30
2018-04-27T06:16:43.448Z,70.50
2018-04-27T06:17:16.718Z,70.50
2018-04-27T06:17:52.963Z,70.50
2018-04-27T06:18:26.205Z,70.10
2018-04-27T06:18:59.477Z,70.00
2018-04-27T06:19:32.759Z,70.30
2018-04-27T06:20:06.016Z,70.40
2018-04-27T06:20:39.284Z,70.40
2018-04-27T06:21:12.549Z,70.70
2018-04-27T06:21:45.824Z,69.90
2018-04-27T06:22:19.080Z,70.30
2018-04-27T06:22:53.128Z,70.50
2018-04-27T06:23:26.388Z,70.50
2018-04-27T06:23:59.674Z,70.80
2018-04-27T06:24:32.936Z,70.70
2018-04-27T06:25:06.204Z,70.40
2018-04-27T06:25:40.238Z,70.00
2018-04-27T06:26:14.267Z,70.30
2018-04-27T06:26:47.533Z,70.30
2018-04-27T06:27:20.808Z,70.00
2018-04-27T06:27:54.101Z,69.80
2018-04-27T06:28:27.401Z,69.30
2018-04-27T06:29:00.662Z,69.30
2018-04-27T06:29:33.930Z,69.30
2018-04-27T06:30:07.209Z,69.10
2018-04-27T06:30:40.470Z,69.10
2018-04-27T06:31:13.740Z,69.00
2018-04-27T06:31:47.080Z,69.10
2018-04-27T06:32:20.288Z,70.10
2018-04-27T06:32:54.323Z,70.30
2018-04-27T06:33:27.612Z,70.30
2018-04-27T06:34:00.967Z,70.10
2018-04-27T06:34:34.253Z,69.70
2018-04-27T06:35:07.515Z,70.30
2018-04-27T06:35:40.789Z,69.90
2018-04-27T06:36:14.078Z,70.00
2018-04-27T06:36:47.349Z,70.20
2018-04-27T06:37:20.628Z,71.50
2018-04-27T06:37:53.917Z,70.90
2018-04-27T06:38:27.811Z,71.10
2018-04-27T06:39:01.076Z,72.00
2018-04-27T06:39:35.100Z,71.20
2018-04-27T06:40:08.365Z,71.10
2018-04-27T06:40:41.629Z,70.80
2018-04-27T06:41:15.658Z,70.80
2018-04-27T06:41:48.924Z,70.80
2018-04-27T06:42:22.197Z,70.10
2018-04-27T06:42:56.238Z,70.00
2018-04-27T06:43:30.287Z,70.70
2018-04-27T06:44:04.312Z,70.30
2018-04-27T06:44:37.565Z,70.30
2018-04-27T06:45:11.604Z,69.60
2018-04-27T06:45:44.884Z,69.50
2018-04-27T06:46:18.157Z,69.50
2018-04-27T06:46:51.433Z,69.20
2018-04-27T06:47:24.702Z,69.40
2018-04-27T06:47:57.960Z,69.10
2018-04-27T06:48:32.004Z,67.90
2018-04-27T06:49:05.276Z,67.80
2018-04-27T06:49:38.544Z,67.50
2018-04-27T06:50:11.815Z,68.20
2018-04-27T06:50:45.096Z,68.60
2018-04-27T06:51:18.348Z,68.20
2018-04-27T06:51:52.393Z,68.20
2018-04-27T06:52:25.651Z,68.20
2018-04-27T06:52:58.936Z,67.90
2018-04-27T06:53:32.425Z,68.00
2018-04-27T06:54:06.445Z,69.00
2018-04-27T06:54:39.727Z,68.20
2018-04-27T06:55:13.002Z,67.90
2018-04-27T06:55:46.281Z,68.10
2018-04-27T06:56:19.544Z,67.70
2018-04-27T06:56:52.814Z,67.20
2018-04-27T06:57:26.105Z,67.00
2018-04-27T06:57:59.375Z,67.00
2018-04-27T06:58:32.652Z,67.20
2018-04-27T06:59:06.844Z,67.70
2018-04-27T06:59:40.129Z,67.60
2018-04-27T07:00:13.436Z,67.50
2018-04-27T07:00:46.709Z,66.80
2018-04-27T07:01:19.992Z,67.30
2018-04-27T07:01:53.264Z,66.40
2018-04-27T07:02:26.536Z,67.10
2018-04-27T07:02:59.809Z,67.30
2018-04-27T07:03:33.099Z,67.00
2018-04-27T07:04:06.365Z,67.20
2018-04-27T07:04:39.664Z,66.80
2018-04-27T07:05:12.952Z,68.10
2018-04-27T07:05:46.236Z,67.50
2018-04-27T07:06:19.523Z,67.70
2018-04-27T07:06:52.805Z,67.00
2018-04-27T07:07:26.065Z,66.10
2018-04-27T07:07:59.344Z,67.00
2018-04-27T07:08:32.645Z,67.70
2018-04-27T07:09:05.920Z,66.50
2018-04-27T07:09:39.200Z,67.20
2018-04-27T07:10:12.466Z,67.10
2018-04-27T07:10:45.738Z,67.40
2018-04-27T07:11:18.993Z,66.40
2018-04-27T07:11:53.038Z,66.10
2018-04-27T07:12:26.296Z,66.10
2018-04-27T07:12:59.563Z,67.00
2018-04-27T07:13:33.617Z,66.40